Airfield :
LOGIN :

Register | Disclaimer

   EN    FR    IT 

 










Legend :    VFR   Marginal VFR   IFR   Intensive IFR   Very Intensive IFR
Visi :
Ceiling :
>= 8 km
>= 3000ft
5 to 8 km
1000 to 3000 ft
1500m to 5 km
500 to 1000 ft
800 to 1500m
200 to 500 ft
< 800m
< 200 ft
Symbols :   Thunderstorms  Fog  Heavy snow  Heavy precipitations  Wind > 20 kt
SIGMETs :     Misc.  Thunderstorms  Icing  Turbulence  Mountain Waves  Volcanic Ashes






- Airport Elevation : 922 ft
- IATA code : RPN


LLIB - Ben Ya'akov

METAR N/A
TAF TAF LLIB
Valid from the 24 at 12:00 until the 25 at 12:00 UTC


241103Z 2412/2512 13007KT 9999 SCT030 BKN080
FM241300 34008KT 7000 SCT020
FM241900 VRB04KT 7000 SCT020
PROB40 2422/2507 5000 BR SCT015
FM250700 34008KT 7000 SCT020
PROB40 2507/2512 5000 -RA BR SCT010 BKN020 TX18/2412Z TN09/2504Z



MET'MAP, your aeronautical weather chart ! - Copyright ORBIFLY December 2007 - Disclaimer

ORBIFLY MET'MAP TEAM :

Programming & Development : Alexandra Zaïnal
Concept & original design : Baudouin d'Aumeries
Assistance for programming : Marc-Olivier Méhu
Technical & hardware support : Manuel Goepfert

Contact : metmap@orbifly.com




SOURCES & CREDITS :

   NOAA